Time;durP1;ratioP1;P1;durP2;ratioP2;P2;SDS_P1;SDS_P2;PMS_P1;PMS_P2;Temp;Humidity;BMP_temperature;BMP_pressure;BME280_temperature;BME280_humidity;BME280_pressure;Samples;Min_cycle;Max_cycle;Signal;HPM_P1;HPM_P2
2021/01/23 00:00:15;;;;;;;14.33;9.83;;;2.80;75.00;;;;;;5075551;28;20191;-69
2021/01/23 00:02:41;;;;;;;18.65;9.60;;;2.70;39.60;;;;;;5075793;28;20271;-69
2021/01/23 00:05:07;;;;;;;10.10;8.97;;;2.60;99.90;;;;;;5075546;28;20172;-69
2021/01/23 00:07:33;;;;;;;16.48;10.65;;;2.70;99.90;;;;;;5075556;28;20588;-69
2021/01/23 00:09:58;;;;;;;13.90;9.57;;;2.70;99.90;;;;;;5075388;28;20283;-69
2021/01/23 00:12:24;;;;;;;12.03;9.03;;;2.70;99.20;;;;;;5075422;28;20199;-69
2021/01/23 00:14:49;;;;;;;12.33;9.50;;;2.60;99.90;;;;;;5075738;28;20172;-69
2021/01/23 00:17:15;;;;;;;12.87;9.40;;;2.70;99.90;;;;;;5075621;28;20585;-68
2021/01/23 00:19:40;;;;;;;13.37;8.37;;;2.60;99.90;;;;;;5074001;28;20195;-69
2021/01/23 00:22:06;;;;;;;14.63;9.83;;;2.60;99.90;;;;;;5075479;28;20667;-69
2021/01/23 00:24:31;;;;;;;13.67;9.17;;;2.70;99.90;;;;;;5075251;28;20183;-69
2021/01/23 00:26:57;;;;;;;19.77;10.37;;;2.60;2.00;;;;;;5075478;28;20161;-69
2021/01/23 00:29:23;;;;;;;10.10;8.93;;;2.50;99.90;;;;;;5074995;28;20279;-69
2021/01/23 00:31:48;;;;;;;15.63;9.30;;;2.40;99.90;;;;;;5075023;28;20194;-69
2021/01/23 00:34:14;;;;;;;15.10;9.40;;;2.70;99.90;;;;;;5075004;28;20164;-69
2021/01/23 00:36:39;;;;;;;13.80;8.87;;;2.70;1.00;;;;;;5074950;28;20635;-69
2021/01/23 00:39:06;;;;;;;12.87;8.93;;;2.50;1.00;;;;;;5073560;28;20172;-68
2021/01/23 00:41:32;;;;;;;10.23;8.65;;;2.50;83.50;;;;;;5075122;28;20191;-69
2021/01/23 00:43:58;;;;;;;14.38;9.32;;;2.40;99.90;;;;;;5074820;28;20637;-69
2021/01/23 00:46:23;;;;;;;11.80;9.63;;;2.30;99.90;;;;;;5074786;28;20258;-69
2021/01/23 00:48:49;;;;;;;13.50;9.70;;;2.30;99.90;;;;;;5074653;28;20184;-69
2021/01/23 00:51:15;;;;;;;9.60;8.63;;;2.30;99.90;;;;;;5074548;28;20196;-69
2021/01/23 00:53:41;;;;;;;11.38;8.95;;;2.40;99.90;;;;;;5074920;28;20172;-69
2021/01/23 00:56:07;;;;;;;11.13;8.13;;;2.30;99.90;;;;;;5074559;28;20230;-70
2021/01/23 00:58:32;;;;;;;11.87;8.40;;;2.40;99.90;;;;;;5074689;28;20660;-69
2021/01/23 01:00:58;;;;;;;14.10;9.47;;;2.50;99.90;;;;;;5074472;28;20184;-69
2021/01/23 01:03:24;;;;;;;14.40;9.10;;;2.40;99.90;;;;;;5074732;28;20259;-69
2021/01/23 01:05:49;;;;;;;16.63;8.30;;;2.50;68.90;;;;;;5074320;28;20384;-69
2021/01/23 01:08:15;;;;;;;11.77;8.90;;;2.20;1.00;;;;;;5074371;28;20652;-69
2021/01/23 01:10:45;;;;;;;13.87;9.00;;;2.20;99.90;;;;;;5074247;28;20268;-69
2021/01/23 01:13:15;;;;;;;15.63;8.20;;;2.40;99.90;;;;;;5074235;28;20251;-69
2021/01/23 01:15:40;;;;;;;10.13;7.50;;;2.40;1.00;;;;;;5074207;28;20163;-69
2021/01/23 01:18:06;;;;;;;10.40;6.90;;;2.40;99.90;;;;;;5074136;28;20176;-69
2021/01/23 01:20:32;;;;;;;8.57;7.05;;;2.50;99.90;;;;;;5074026;28;20180;-69
2021/01/23 01:22:58;;;;;;;9.63;7.00;;;2.50;99.90;;;;;;5074205;28;20174;-67
2021/01/23 01:25:24;;;;;;;11.73;6.88;;;2.70;1.00;;;;;;5074023;28;20160;-69
2021/01/23 01:27:49;;;;;;;9.23;7.93;;;2.50;1.00;;;;;;5072692;28;20331;-68
2021/01/23 01:30:16;;;;;;;9.20;7.47;;;2.20;99.90;;;;;;5073998;28;20192;-69
2021/01/23 01:32:42;;;;;;;14.90;8.48;;;2.40;99.90;;;;;;5073754;28;20196;-69
2021/01/23 01:35:08;;;;;;;15.20;9.52;;;2.30;99.90;;;;;;5073799;28;20172;-68
2021/01/23 01:37:33;;;;;;;13.55;8.68;;;2.50;99.90;;;;;;5073848;28;20168;-68
2021/01/23 01:40:00;;;;;;;12.63;8.80;;;2.50;99.90;;;;;;5072990;28;20730;-68
2021/01/23 01:42:26;;;;;;;12.63;8.02;;;2.40;34.90;;;;;;5073499;28;20167;-69
2021/01/23 01:44:51;;;;;;;11.10;7.47;;;2.50;99.90;;;;;;5073443;28;20171;-68
2021/01/23 01:47:17;;;;;;;9.90;8.10;;;2.50;99.90;;;;;;5073410;28;20195;-68
2021/01/23 01:49:43;;;;;;;11.93;8.27;;;2.40;99.90;;;;;;5073664;28;20184;-68
2021/01/23 01:52:09;;;;;;;13.83;9.13;;;2.40;99.90;;;;;;5073367;28;20794;-69
2021/01/23 01:54:36;;;;;;;12.30;8.10;;;2.40;99.90;;;;;;5073377;28;20191;-68
2021/01/23 01:57:01;;;;;;;10.07;7.55;;;2.30;87.90;;;;;;5073295;28;20160;-67
2021/01/23 01:59:27;;;;;;;8.40;7.50;;;2.50;1.00;;;;;;5073149;28;20271;-68
2021/01/23 02:02:08;;;;;;;9.83;7.70;;;2.40;14.50;;;;;;5073208;28;20477;-68
2021/01/23 02:05:02;;;;;;;12.32;8.32;;;2.30;99.90;;;;;;5071947;28;20171;-68
2021/01/23 02:07:42;;;;;;;12.95;7.55;;;2.30;99.90;;;;;;5073341;28;20161;-68
2021/01/23 02:10:24;;;;;;;11.52;8.05;;;2.30;99.90;;;;;;5073212;28;20188;-68
2021/01/23 02:12:58;;;;;;;8.55;6.75;;;2.50;99.90;;;;;;5073054;28;20179;-68
2021/01/23 02:15:27;;;;;;;7.18;6.00;;;2.50;1.00;;;;;;5073252;28;20164;-68
2021/01/23 02:18:02;;;;;;;13.02;7.00;;;2.50;91.30;;;;;;5073126;28;20168;-67
2021/01/23 02:21:07;;;;;;;9.80;6.80;;;2.30;77.20;;;;;;5073205;28;20231;-69
2021/01/23 02:23:38;;;;;;;12.40;7.45;;;2.30;99.90;;;;;;5073221;28;20149;-68
2021/01/23 02:26:16;;;;;;;11.20;7.45;;;2.30;99.90;;;;;;5073264;28;20145;-68
2021/01/23 02:29:07;;;;;;;10.57;6.85;;;2.40;99.90;;;;;;5073182;28;20152;-68
2021/01/23 02:31:39;;;;;;;11.25;7.13;;;2.70;42.70;;;;;;5072781;28;20188;-68
2021/01/23 02:34:09;;;;;;;7.60;5.50;;;2.60;1.00;;;;;;5073153;28;20519;-69
2021/01/23 02:36:36;;;;;;;6.45;5.60;;;2.60;1.00;;;;;;5072753;28;20165;-68
2021/01/23 02:39:03;;;;;;;12.07;6.28;;;2.60;1.00;;;;;;5072751;28;20175;-68
2021/01/23 02:41:30;;;;;;;7.78;6.43;;;2.60;1.00;;;;;;5072832;28;20534;-68
2021/01/23 02:43:55;;;;;;;11.48;7.05;;;2.50;1.00;;;;;;5072707;28;20267;-68
2021/01/23 02:46:21;;;;;;;8.00;5.60;;;2.40;1.00;;;;;;5072893;28;20226;-68
2021/01/23 02:48:48;;;;;;;8.20;6.70;;;2.50;1.00;;;;;;5072569;28;20188;-68
2021/01/23 02:51:33;;;;;;;10.23;5.97;;;2.40;1.00;;;;;;5071645;28;20200;-68
2021/01/23 02:54:05;;;;;;;6.85;6.13;;;2.50;1.00;;;;;;5072616;28;20152;-68
2021/01/23 02:56:33;;;;;;;8.70;5.32;;;2.60;1.00;;;;;;5072837;28;20164;-69
2021/01/23 02:59:03;;;;;;;6.65;4.70;;;2.60;1.00;;;;;;5073037;28;20160;-68
2021/01/23 03:01:33;;;;;;;11.73;6.30;;;2.60;1.00;;;;;;5072523;28;20152;-69
2021/01/23 03:03:59;;;;;;;10.75;6.28;;;2.40;99.90;;;;;;5072416;28;20200;-69
2021/01/23 03:06:25;;;;;;;8.60;5.68;;;2.30;1.00;;;;;;5072534;28;20662;-69
2021/01/23 03:08:50;;;;;;;9.87;5.10;;;2.30;1.00;;;;;;5072511;28;20274;-68
2021/01/23 03:11:16;;;;;;;10.17;5.97;;;2.30;1.00;;;;;;5072391;28;20250;-68
2021/01/23 03:13:42;;;;;;;12.50;5.87;;;2.20;1.00;;;;;;5072456;28;20738;-68
2021/01/23 03:16:07;;;;;;;8.57;5.80;;;2.30;1.00;;;;;;5072421;28;20196;-69
2021/01/23 03:18:33;;;;;;;7.03;5.70;;;2.20;1.00;;;;;;5072440;28;20195;-68
2021/01/23 03:20:58;;;;;;;34.27;16.00;;;2.00;1.00;;;;;;5072346;28;20192;-69
2021/01/23 03:23:24;;;;;;;16.63;7.80;;;2.20;99.90;;;;;;5072557;28;20515;-68
2021/01/23 03:25:51;;;;;;;16.00;6.87;;;2.50;68.00;;;;;;5072340;28;20168;-68
2021/01/23 03:28:16;;;;;;;6.75;5.45;;;2.60;1.00;;;;;;5072280;28;20172;-68
2021/01/23 03:30:42;;;;;;;8.73;5.90;;;2.80;1.00;;;;;;5072081;28;20188;-69
2021/01/23 03:33:08;;;;;;;6.50;5.00;;;2.70;99.90;;;;;;5072282;28;20175;-69
2021/01/23 03:35:33;;;;;;;6.40;4.77;;;2.80;99.90;;;;;;5072926;28;20637;-67
2021/01/23 03:37:59;;;;;;;6.30;5.00;;;2.50;99.90;;;;;;5072492;28;20515;-68
2021/01/23 03:40:24;;;;;;;7.33;5.23;;;2.40;99.90;;;;;;5072339;28;20185;-68
2021/01/23 03:42:50;;;;;;;6.20;4.97;;;2.50;99.90;;;;;;5072442;28;20168;-68
2021/01/23 03:45:16;;;;;;;5.70;4.60;;;2.60;99.90;;;;;;5072372;28;20256;-68
2021/01/23 03:47:41;;;;;;;8.50;4.90;;;3.00;99.90;;;;;;5072057;28;20195;-69
2021/01/23 03:50:09;;;;;;;6.67;4.63;;;3.20;99.90;;;;;;5072023;28;20427;-68
2021/01/23 03:52:35;;;;;;;7.55;4.80;;;3.30;99.90;;;;;;5072059;28;20192;-68
2021/01/23 03:55:02;;;;;;;13.43;4.57;;;3.40;99.90;;;;;;5072168;28;20179;-69
2021/01/23 03:57:27;;;;;;;8.20;4.93;;;3.20;99.90;;;;;;5072060;28;20160;-68
2021/01/23 03:59:53;;;;;;;6.70;5.07;;;3.20;99.90;;;;;;5071986;28;20250;-68
2021/01/23 04:02:18;;;;;;;6.20;5.50;;;3.30;99.90;;;;;;5072385;28;20179;-68
2021/01/23 04:04:44;;;;;;;6.07;4.43;;;3.30;99.90;;;;;;5075630;28;20172;-68
2021/01/23 04:07:10;;;;;;;8.27;5.10;;;3.40;99.90;;;;;;5076011;28;20180;-68
2021/01/23 04:09:35;;;;;;;13.40;5.63;;;3.40;99.90;;;;;;5075460;28;20195;-68
2021/01/23 04:12:01;;;;;;;9.23;5.00;;;3.40;99.90;;;;;;5075655;28;20549;-68
2021/01/23 04:14:26;;;;;;;7.37;4.57;;;3.40;99.90;;;;;;5075683;28;20553;-68
2021/01/23 04:16:52;;;;;;;7.50;4.77;;;3.40;99.90;;;;;;5075324;28;20164;-68
2021/01/23 04:19:18;;;;;;;6.67;4.43;;;3.60;99.90;;;;;;5075134;28;20168;-68
2021/01/23 04:21:44;;;;;;;12.70;4.80;;;3.60;99.90;;;;;;5075715;28;20176;-68
2021/01/23 04:24:10;;;;;;;6.30;4.20;;;3.70;99.90;;;;;;5075210;28;20664;-67
2021/01/23 04:26:39;;;;;;;7.97;4.78;;;3.60;99.90;;;;;;5075199;28;20198;-68
2021/01/23 04:29:04;;;;;;;6.47;3.80;;;3.60;99.90;;;;;;5075064;28;20172;-68
2021/01/23 04:31:30;;;;;;;6.77;4.80;;;3.50;99.90;;;;;;5075120;28;20195;-68
2021/01/23 04:33:56;;;;;;;5.97;4.43;;;3.40;99.90;;;;;;5074998;28;20199;-68
2021/01/23 04:36:21;;;;;;;8.87;4.13;;;3.50;99.90;;;;;;5074969;28;20164;-68
2021/01/23 04:38:47;;;;;;;11.43;4.03;;;3.50;99.90;;;;;;5074900;28;20171;-68
2021/01/23 04:41:13;;;;;;;5.93;5.10;;;3.50;99.90;;;;;;5074794;28;20187;-68
2021/01/23 04:43:38;;;;;;;9.90;4.73;;;3.50;99.90;;;;;;5075075;28;20899;-68
2021/01/23 04:46:04;;;;;;;4.90;4.30;;;3.60;99.90;;;;;;5074794;28;20251;-68
2021/01/23 04:48:30;;;;;;;13.07;5.00;;;3.50;99.90;;;;;;5074605;28;20207;-68
2021/01/23 04:50:56;;;;;;;6.50;5.03;;;3.50;99.90;;;;;;5074584;28;20680;-68
2021/01/23 04:53:22;;;;;;;5.40;4.45;;;3.50;99.90;;;;;;5074975;28;20669;-68
2021/01/23 04:55:48;;;;;;;9.20;4.87;;;3.50;99.90;;;;;;5074607;28;20203;-69
2021/01/23 04:58:13;;;;;;;10.17;6.10;;;3.70;99.90;;;;;;5074570;28;20163;-68
2021/01/23 05:00:39;;;;;;;5.43;3.60;;;3.60;99.90;;;;;;5074444;28;20609;-69
2021/01/23 05:03:06;;;;;;;6.30;4.53;;;3.60;97.90;;;;;;5074598;28;20214;-68
2021/01/23 05:05:33;;;;;;;9.13;5.30;;;3.60;99.90;;;;;;5074380;28;20174;-68
2021/01/23 05:08:09;;;;;;;6.78;4.90;;;3.60;99.90;;;;;;5074357;28;20584;-68
2021/01/23 05:10:35;;;;;;;6.45;4.85;;;3.60;99.90;;;;;;5074288;28;20212;-68
2021/01/23 05:13:10;;;;;;;7.27;5.73;;;3.60;99.90;;;;;;5075778;28;20188;-69
2021/01/23 05:15:36;;;;;;;6.18;4.85;;;3.60;99.90;;;;;;5077122;28;20670;-68
2021/01/23 05:18:05;;;;;;;7.60;4.90;;;3.70;99.90;;;;;;5075818;28;20168;-67
2021/01/23 05:20:47;;;;;;;6.53;5.15;;;3.70;99.90;;;;;;5077138;28;20245;-68
2021/01/23 05:23:15;;;;;;;17.33;5.47;;;3.70;99.90;;;;;;5077271;28;20160;-68
2021/01/23 05:25:43;;;;;;;11.75;4.90;;;3.60;99.90;;;;;;5077213;28;20164;-68
2021/01/23 05:28:11;;;;;;;7.25;4.78;;;3.60;99.90;;;;;;5076702;28;20636;-68
2021/01/23 05:30:52;;;;;;;6.93;5.22;;;3.70;99.90;;;;;;5077104;28;20184;-68
2021/01/23 05:33:21;;;;;;;13.55;5.60;;;3.70;90.90;;;;;;5074617;28;20636;-68
2021/01/23 05:36:05;;;;;;;6.18;4.03;;;3.80;89.90;;;;;;5073702;28;20164;-69
2021/01/23 05:38:36;;;;;;;8.63;4.07;;;3.90;87.00;;;;;;5073714;28;20153;-68
2021/01/23 05:41:04;;;;;;;10.57;4.25;;;3.90;87.60;;;;;;5073784;28;20184;-69
2021/01/23 05:43:37;;;;;;;6.95;4.30;;;4.00;73.80;;;;;;5073473;28;20247;-69
2021/01/23 05:46:05;;;;;;;5.22;4.38;;;4.00;60.30;;;;;;5073947;28;20192;-69
2021/01/23 05:48:35;;;;;;;7.03;4.53;;;3.90;81.90;;;;;;5074811;28;20607;-69
2021/01/23 05:51:02;;;;;;;8.00;4.63;;;3.90;66.50;;;;;;5075917;28;20204;-69
2021/01/23 05:53:28;;;;;;;7.72;4.60;;;3.90;91.40;;;;;;5073863;28;20194;-69
2021/01/23 05:55:54;;;;;;;5.40;4.82;;;4.10;94.30;;;;;;5073339;28;20176;-69
2021/01/23 05:58:20;;;;;;;5.72;4.97;;;4.10;92.20;;;;;;5073295;28;20168;-69
2021/01/23 06:00:48;;;;;;;5.87;3.90;;;4.00;99.90;;;;;;5073170;28;20672;-68
2021/01/23 06:03:15;;;;;;;6.03;4.20;;;4.00;96.50;;;;;;5073280;28;20186;-68
2021/01/23 06:05:41;;;;;;;6.85;3.83;;;4.00;99.90;;;;;;5074707;28;20167;-69
2021/01/23 06:08:06;;;;;;;8.27;4.40;;;4.10;99.90;;;;;;5074771;28;20168;-69
2021/01/23 06:10:39;;;;;;;6.47;5.00;;;4.20;99.90;;;;;;5073420;28;20405;-69
2021/01/23 06:13:25;;;;;;;8.40;4.80;;;4.10;99.90;;;;;;5073071;28;20263;-69
2021/01/23 06:15:51;;;;;;;5.55;3.78;;;4.10;99.90;;;;;;5073144;28;20214;-69
2021/01/23 06:18:22;;;;;;;10.60;4.17;;;4.10;99.90;;;;;;5072981;28;20598;-69
2021/01/23 06:20:50;;;;;;;6.47;4.32;;;4.00;99.90;;;;;;5072859;28;20216;-69
2021/01/23 06:23:16;;;;;;;7.20;5.10;;;3.90;99.90;;;;;;5073114;28;20247;-68
2021/01/23 06:25:51;;;;;;;7.50;4.35;;;4.00;99.90;;;;;;5072646;28;20169;-69
2021/01/23 06:28:26;;;;;;;8.93;4.70;;;3.90;99.90;;;;;;5072774;28;20164;-69
2021/01/23 06:30:52;;;;;;;6.57;3.83;;;3.90;99.90;;;;;;5072635;28;20514;-69
2021/01/23 06:33:24;;;;;;;7.93;4.32;;;4.00;99.90;;;;;;5073017;28;20255;-69
2021/01/23 06:36:01;;;;;;;6.28;4.38;;;4.00;99.90;;;;;;5072949;28;20529;-69
2021/01/23 06:38:28;;;;;;;5.90;4.90;;;3.90;99.90;;;;;;5072692;28;20164;-68
2021/01/23 06:40:53;;;;;;;5.55;4.47;;;4.00;99.90;;;;;;5072598;28;20234;-69
2021/01/23 06:43:19;;;;;;;4.93;4.33;;;3.90;99.90;;;;;;5072736;28;20195;-69
2021/01/23 06:45:45;;;;;;;6.10;3.63;;;4.10;99.90;;;;;;5072779;28;20478;-69
2021/01/23 06:48:10;;;;;;;6.87;3.77;;;4.00;99.90;;;;;;5072525;28;20192;-69
2021/01/23 06:50:41;;;;;;;8.73;4.30;;;4.00;99.90;;;;;;5072416;28;20184;-69
2021/01/23 06:53:20;;;;;;;4.72;3.33;;;4.10;99.90;;;;;;5072594;28;20198;-69
2021/01/23 06:55:51;;;;;;;5.60;3.80;;;4.10;99.90;;;;;;5072554;28;20160;-69
2021/01/23 06:58:22;;;;;;;5.65;4.22;;;4.30;96.70;;;;;;5072520;28;20164;-69
2021/01/23 07:00:50;;;;;;;5.60;3.70;;;4.20;92.40;;;;;;5072771;28;20183;-68
2021/01/23 07:03:17;;;;;;;8.13;4.13;;;4.20;95.70;;;;;;5072531;28;20571;-68
2021/01/23 07:05:54;;;;;;;7.00;4.32;;;4.20;96.50;;;;;;5072445;28;20164;-69
2021/01/23 07:08:21;;;;;;;6.30;4.32;;;4.10;92.20;;;;;;5072711;28;20148;-69
2021/01/23 07:11:04;;;;;;;9.15;4.20;;;4.30;86.90;;;;;;5072488;28;20188;-68
2021/01/23 07:13:30;;;;;;;6.03;3.95;;;4.30;79.40;;;;;;5072399;28;20188;-69
2021/01/23 07:15:56;;;;;;;6.13;4.50;;;4.30;62.90;;;;;;5072492;28;20265;-69
2021/01/23 07:18:21;;;;;;;8.67;4.20;;;4.20;84.80;;;;;;5072609;28;20164;-69
2021/01/23 07:20:47;;;;;;;6.17;4.00;;;4.30;97.90;;;;;;5072512;28;20680;-69
2021/01/23 07:23:14;;;;;;;9.48;4.57;;;4.20;99.90;;;;;;5072270;28;20194;-69
2021/01/23 07:25:40;;;;;;;5.93;4.30;;;4.20;84.30;;;;;;5072500;28;20244;-69
2021/01/23 07:28:06;;;;;;;8.30;3.83;;;4.30;67.00;;;;;;5072239;28;20259;-69
2021/01/23 07:30:32;;;;;;;6.07;3.70;;;4.20;89.00;;;;;;5072160;28;20517;-69
2021/01/23 07:32:57;;;;;;;5.30;4.80;;;4.20;96.60;;;;;;5072247;28;20596;-69
2021/01/23 07:35:23;;;;;;;7.27;4.43;;;4.30;99.40;;;;;;5072434;28;20243;-69
2021/01/23 07:38:00;;;;;;;7.50;4.17;;;4.30;87.50;;;;;;5073149;28;20199;-69
2021/01/23 07:40:31;;;;;;;4.50;3.65;;;4.20;81.30;;;;;;5075809;28;20226;-69
2021/01/23 07:42:59;;;;;;;10.32;4.88;;;4.40;94.50;;;;;;5076115;28;20242;-69
2021/01/23 07:45:25;;;;;;;6.63;4.30;;;4.40;93.50;;;;;;5075914;28;20726;-69
2021/01/23 07:47:58;;;;;;;5.83;4.30;;;4.40;78.70;;;;;;5075874;28;20180;-69
2021/01/23 07:50:24;;;;;;;6.18;4.63;;;4.40;82.20;;;;;;5076472;28;20303;-68
2021/01/23 07:52:50;;;;;;;7.68;4.68;;;4.50;79.40;;;;;;5075891;28;20238;-69
2021/01/23 07:55:15;;;;;;;10.03;4.93;;;4.40;69.50;;;;;;5075775;28;20196;-69
2021/01/23 07:57:41;;;;;;;4.97;3.73;;;4.40;84.90;;;;;;5075626;28;20414;-69
2021/01/23 08:00:19;;;;;;;7.40;4.30;;;4.40;79.30;;;;;;5075656;28;20241;-69
2021/01/23 08:02:52;;;;;;;7.25;5.15;;;4.60;91.30;;;;;;5075546;28;20176;-69
2021/01/23 08:05:18;;;;;;;5.88;4.38;;;4.60;90.70;;;;;;5075494;28;20180;-69
2021/01/23 08:07:44;;;;;;;9.57;5.22;;;4.60;62.30;;;;;;5075402;28;20222;-69
2021/01/23 08:10:20;;;;;;;7.30;4.43;;;4.60;67.30;;;;;;5075401;28;20184;-68
2021/01/23 08:12:56;;;;;;;6.20;4.97;;;4.60;81.20;;;;;;5075357;28;20244;-69
2021/01/23 08:15:25;;;;;;;6.95;4.22;;;4.50;89.60;;;;;;5075129;28;20255;-69
2021/01/23 08:17:51;;;;;;;7.65;5.25;;;4.60;81.20;;;;;;5075379;28;20164;-69
2021/01/23 08:20:28;;;;;;;9.50;4.63;;;4.60;79.10;;;;;;5075407;28;20270;-69
2021/01/23 08:23:16;;;;;;;5.90;5.00;;;4.50;99.90;;;;;;5075595;28;20160;-69
2021/01/23 08:25:44;;;;;;;5.32;4.43;;;4.60;93.20;;;;;;5075197;28;20152;-69
2021/01/23 08:28:10;;;;;;;7.28;3.85;;;4.60;85.50;;;;;;5075216;28;20160;-69
2021/01/23 08:30:36;;;;;;;5.80;4.30;;;4.80;92.00;;;;;;5074859;28;20569;-68
2021/01/23 08:33:04;;;;;;;6.63;4.73;;;4.90;83.10;;;;;;5075000;28;20196;-68
2021/01/23 08:35:30;;;;;;;5.88;4.18;;;4.80;63.60;;;;;;5074913;28;20218;-69
2021/01/23 08:37:56;;;;;;;6.50;4.38;;;4.90;69.00;;;;;;5074788;28;20179;-68
2021/01/23 08:40:23;;;;;;;7.90;4.67;;;4.90;73.20;;;;;;5074650;28;20547;-69
2021/01/23 08:42:50;;;;;;;7.93;4.97;;;5.00;52.90;;;;;;5074614;28;20168;-68
2021/01/23 08:45:17;;;;;;;14.10;5.90;;;5.10;56.00;;;;;;5074708;28;20180;-69
2021/01/23 08:47:43;;;;;;;7.75;4.60;;;5.10;43.60;;;;;;5074438;28;20230;-69
2021/01/23 08:50:09;;;;;;;6.03;3.80;;;5.30;25.70;;;;;;5073650;28;20265;-68
2021/01/23 08:52:35;;;;;;;7.72;4.50;;;5.30;19.20;;;;;;5075078;28;20602;-68
2021/01/23 08:55:01;;;;;;;7.60;4.97;;;5.50;16.50;;;;;;5074673;28;20192;-68
2021/01/23 08:57:26;;;;;;;5.93;4.47;;;5.60;3.80;;;;;;5074370;28;20404;-68
2021/01/23 08:59:52;;;;;;;10.20;5.70;;;5.50;3.30;;;;;;5074264;28;20192;-68
2021/01/23 09:02:17;;;;;;;6.57;4.97;;;5.60;7.20;;;;;;5074342;28;20168;-67
2021/01/23 09:04:43;;;;;;;9.00;5.00;;;5.60;5.00;;;;;;5074124;28;20172;-69
2021/01/23 09:07:09;;;;;;;6.93;5.07;;;5.70;1.00;;;;;;5074289;28;20175;-68
2021/01/23 09:09:34;;;;;;;8.87;4.83;;;5.70;1.00;;;;;;5074207;28;20680;-69
2021/01/23 09:12:00;;;;;;;8.10;5.73;;;5.60;3.20;;;;;;5074086;28;20469;-69
2021/01/23 09:14:26;;;;;;;8.93;5.17;;;5.80;1.00;;;;;;5074210;28;20168;-69
2021/01/23 09:16:52;;;;;;;5.60;4.67;;;5.70;5.00;;;;;;5074683;28;20188;-67
2021/01/23 09:19:19;;;;;;;9.63;6.00;;;5.70;13.80;;;;;;5074252;28;20164;-69
2021/01/23 09:21:45;;;;;;;5.53;4.65;;;5.90;1.00;;;;;;5074118;28;20172;-67
2021/01/23 09:24:10;;;;;;;7.63;4.63;;;6.10;1.00;;;;;;5074175;28;20707;-68
2021/01/23 09:26:36;;;;;;;7.13;4.90;;;6.00;1.00;;;;;;5073970;28;20164;-69
2021/01/23 09:29:02;;;;;;;7.60;4.70;;;6.10;1.00;;;;;;5073674;28;20251;-68
2021/01/23 09:31:27;;;;;;;7.37;5.67;;;6.30;1.00;;;;;;5073683;28;20192;-69
2021/01/23 09:33:53;;;;;;;7.67;4.47;;;6.30;1.00;;;;;;5073696;28;20168;-69
2021/01/23 09:36:18;;;;;;;7.20;4.87;;;6.30;1.00;;;;;;5073644;28;20168;-69
2021/01/23 09:38:44;;;;;;;8.73;5.53;;;6.50;1.00;;;;;;5073729;28;20175;-69
2021/01/23 09:41:10;;;;;;;8.00;5.57;;;6.40;1.00;;;;;;5073644;28;20191;-68
2021/01/23 09:43:36;;;;;;;8.02;5.80;;;6.50;1.00;;;;;;5073857;28;20164;-69
2021/01/23 09:46:02;;;;;;;6.30;4.60;;;6.50;1.00;;;;;;5073486;28;20251;-69
2021/01/23 09:48:27;;;;;;;8.30;4.77;;;6.60;1.00;;;;;;5073476;28;20786;-69
2021/01/23 09:50:53;;;;;;;5.20;4.33;;;6.70;1.00;;;;;;5071905;28;20668;-69
2021/01/23 09:53:19;;;;;;;8.38;4.97;;;6.50;1.00;;;;;;5073334;28;20641;-69
2021/01/23 09:55:44;;;;;;;7.40;5.13;;;6.70;1.00;;;;;;5073371;28;20175;-69
2021/01/23 09:58:10;;;;;;;16.53;7.20;;;6.70;1.00;;;;;;5073351;28;20164;-68
2021/01/23 10:00:36;;;;;;;7.20;5.53;;;6.80;1.00;;;;;;5072620;28;20192;-69
2021/01/23 10:03:02;;;;;;;10.17;4.73;;;6.90;1.00;;;;;;5072900;28;20172;-67
2021/01/23 10:05:28;;;;;;;6.78;4.57;;;6.80;1.00;;;;;;5072645;28;20172;-68
2021/01/23 10:07:53;;;;;;;10.10;4.93;;;7.10;1.00;;;;;;5072863;28;20168;-69
2021/01/23 10:10:19;;;;;;;8.10;5.10;;;7.20;1.00;;;;;;5072845;28;20263;-69
2021/01/23 10:12:44;;;;;;;7.90;5.07;;;7.30;1.00;;;;;;5072941;28;20219;-68
2021/01/23 10:15:10;;;;;;;9.73;4.47;;;7.30;1.00;;;;;;5073044;28;20168;-68
2021/01/23 10:17:36;;;;;;;8.07;4.60;;;7.80;1.00;;;;;;5073029;28;20160;-69
2021/01/23 10:20:02;;;;;;;5.03;4.17;;;8.10;1.00;;;;;;5072763;28;20195;-68
2021/01/23 10:22:28;;;;;;;5.70;4.40;;;8.20;1.00;;;;;;5072810;28;20176;-69
2021/01/23 10:24:53;;;;;;;6.10;4.40;;;8.00;1.00;;;;;;5072997;28;20203;-69
2021/01/23 10:27:19;;;;;;;3.70;3.30;;;8.20;1.00;;;;;;5073114;28;20178;-68
2021/01/23 10:29:45;;;;;;;5.93;3.97;;;7.90;1.00;;;;;;5072619;28;20640;-69
2021/01/23 10:32:10;;;;;;;6.10;3.90;;;8.30;1.00;;;;;;5072614;28;20184;-68
2021/01/23 10:34:36;;;;;;;6.67;4.63;;;8.20;1.00;;;;;;5072689;28;20160;-68
2021/01/23 10:37:02;;;;;;;5.07;3.43;;;8.50;1.00;;;;;;5072709;28;20629;-68
2021/01/23 10:39:27;;;;;;;5.03;4.03;;;8.50;1.00;;;;;;5072652;28;20425;-69
2021/01/23 10:41:53;;;;;;;8.67;4.60;;;8.50;1.00;;;;;;5072709;28;20168;-67
2021/01/23 10:44:19;;;;;;;8.10;4.60;;;9.00;1.00;;;;;;5072689;28;20247;-67
2021/01/23 10:46:44;;;;;;;5.80;4.50;;;9.30;1.00;;;;;;5072752;28;20510;-68
2021/01/23 10:49:10;;;;;;;5.50;3.47;;;9.20;1.00;;;;;;5072363;28;20543;-67
2021/01/23 10:51:36;;;;;;;6.13;4.10;;;8.90;1.00;;;;;;5072230;28;20234;-67
2021/01/23 10:54:02;;;;;;;7.03;4.10;;;8.90;1.00;;;;;;5072395;28;20195;-67
2021/01/23 10:56:28;;;;;;;6.57;3.50;;;8.90;1.00;;;;;;5072838;28;20241;-68
2021/01/23 10:59:00;;;;;;;11.07;4.50;;;8.80;1.00;;;;;;5072429;28;20168;-68
2021/01/23 11:01:27;;;;;;;8.55;4.53;;;9.00;1.00;;;;;;5072309;28;20184;-68
2021/01/23 11:03:52;;;;;;;5.57;4.10;;;9.40;1.00;;;;;;5072377;28;20172;-69
2021/01/23 11:06:18;;;;;;;9.83;6.10;;;9.60;1.00;;;;;;5072464;28;20252;-69
2021/01/23 11:08:44;;;;;;;6.50;4.23;;;9.70;1.00;;;;;;5072337;28;20165;-69
2021/01/23 11:11:09;;;;;;;5.90;4.83;;;9.80;1.00;;;;;;5072173;28;20195;-69
2021/01/23 11:13:35;;;;;;;6.33;5.03;;;10.00;1.00;;;;;;5074937;28;20168;-69
2021/01/23 11:16:00;;;;;;;5.60;3.80;;;10.20;1.00;;;;;;5076401;28;20170;-69
2021/01/23 11:18:26;;;;;;;4.80;3.50;;;10.10;1.00;;;;;;5075248;28;20168;-69
2021/01/23 11:20:51;;;;;;;5.50;4.00;;;10.40;1.00;;;;;;5076461;28;20184;-68
2021/01/23 11:23:17;;;;;;;7.73;3.70;;;10.20;1.00;;;;;;5076495;28;20238;-69
2021/01/23 11:25:43;;;;;;;5.93;3.93;;;10.40;1.00;;;;;;5076298;28;20173;-69
2021/01/23 11:28:08;;;;;;;5.30;3.73;;;10.20;1.00;;;;;;5076175;28;20520;-69
2021/01/23 11:30:35;;;;;;;4.10;3.53;;;10.30;1.00;;;;;;5076294;28;20192;-68
2021/01/23 11:33:00;;;;;;;5.97;4.03;;;10.60;1.00;;;;;;5075715;28;20184;-68
2021/01/23 11:35:26;;;;;;;4.93;2.90;;;10.90;1.00;;;;;;5076092;28;20398;-68
2021/01/23 11:37:51;;;;;;;5.40;3.80;;;11.00;1.00;;;;;;5076211;28;20247;-69
2021/01/23 11:40:17;;;;;;;4.47;3.63;;;11.20;1.00;;;;;;5076300;28;20548;-68
2021/01/23 11:42:43;;;;;;;4.30;3.03;;;11.10;1.00;;;;;;5076086;28;20172;-69
2021/01/23 11:45:09;;;;;;;5.00;4.13;;;11.20;1.00;;;;;;5076132;28;20764;-69
2021/01/23 11:47:35;;;;;;;4.03;3.60;;;10.80;1.00;;;;;;5075715;28;20564;-69
2021/01/23 11:50:01;;;;;;;7.57;4.10;;;10.50;1.00;;;;;;5075750;28;20430;-68
2021/01/23 11:52:27;;;;;;;2.67;2.37;;;10.30;1.00;;;;;;5075660;28;20195;-68
2021/01/23 11:54:52;;;;;;;3.40;2.47;;;9.90;1.00;;;;;;5075365;28;20406;-68
2021/01/23 11:57:18;;;;;;;6.70;3.03;;;9.50;1.00;;;;;;5075461;28;20174;-68
2021/01/23 11:59:43;;;;;;;3.47;2.90;;;9.60;1.00;;;;;;5075684;28;20191;-68
2021/01/23 12:02:09;;;;;;;5.10;3.40;;;9.50;1.00;;;;;;5076199;28;20558;-68
2021/01/23 12:04:35;;;;;;;4.77;3.23;;;9.60;1.00;;;;;;5075591;28;20248;-68
2021/01/23 12:07:00;;;;;;;7.97;3.50;;;9.30;1.00;;;;;;5075453;28;20168;-68
2021/01/23 12:09:26;;;;;;;2.90;2.57;;;10.00;1.00;;;;;;5075247;28;20184;-68
2021/01/23 12:11:52;;;;;;;4.32;3.30;;;9.90;1.00;;;;;;5075346;28;20192;-68
2021/01/23 12:14:18;;;;;;;5.10;3.30;;;9.90;1.00;;;;;;5075586;28;20657;-68
2021/01/23 12:16:43;;;;;;;6.37;3.73;;;10.10;1.00;;;;;;5075432;28;20168;-67
2021/01/23 12:19:09;;;;;;;3.50;3.10;;;10.00;1.00;;;;;;5075266;28;20172;-68
2021/01/23 12:21:35;;;;;;;6.68;3.53;;;10.00;1.00;;;;;;5075038;28;20172;-67
2021/01/23 12:24:00;;;;;;;9.63;4.03;;;9.90;1.00;;;;;;5075255;28;20192;-67
2021/01/23 12:26:26;;;;;;;3.73;2.30;;;10.50;1.00;;;;;;5075020;28;20643;-68
2021/01/23 12:28:52;;;;;;;4.77;2.37;;;10.20;1.00;;;;;;5075097;28;20179;-69
2021/01/23 12:31:19;;;;;;;8.97;2.20;;;10.30;1.00;;;;;;5074742;28;20522;-67
2021/01/23 12:33:44;;;;;;;5.07;2.20;;;10.30;1.00;;;;;;5074967;28;20832;-68
2021/01/23 12:36:11;;;;;;;5.03;2.47;;;10.00;1.00;;;;;;5074886;28;20481;-68
2021/01/23 12:38:37;;;;;;;5.27;2.50;;;10.00;1.00;;;;;;5074844;28;20164;-67
2021/01/23 12:41:02;;;;;;;6.40;2.77;;;9.90;1.00;;;;;;5075279;28;20829;-67
2021/01/23 12:43:28;;;;;;;3.53;2.00;;;10.00;1.00;;;;;;5074827;28;20409;-68
2021/01/23 12:45:54;;;;;;;2.80;1.37;;;9.60;1.00;;;;;;5074797;28;20235;-68
2021/01/23 12:48:21;;;;;;;5.03;2.70;;;9.30;1.00;;;;;;5074501;28;20263;-67
2021/01/23 12:50:47;;;;;;;3.30;1.75;;;9.60;1.00;;;;;;5074435;28;20186;-68
2021/01/23 12:53:12;;;;;;;4.87;1.60;;;9.00;1.00;;;;;;5075054;28;20280;-68
2021/01/23 12:55:38;;;;;;;2.60;1.63;;;8.90;1.00;;;;;;5074528;28;20165;-67
2021/01/23 12:58:03;;;;;;;4.87;2.00;;;9.20;1.00;;;;;;5074592;28;20645;-66